createdAt,value
2023-03-07T00:01:36.320Z,27.46
2023-03-07T00:04:06.891Z,27.62
2023-03-07T00:06:38.270Z,28.00
2023-03-07T00:09:09.348Z,27.99
2023-03-07T00:11:41.312Z,28.29
2023-03-07T00:14:12.689Z,28.23
2023-03-07T00:16:43.187Z,27.92
2023-03-07T00:19:14.575Z,27.71
2023-03-07T00:21:45.681Z,27.66
2023-03-07T00:24:17.113Z,28.57
2023-03-07T00:26:48.359Z,28.71
2023-03-07T00:29:19.473Z,27.56
2023-03-07T00:31:51.462Z,27.58
2023-03-07T00:34:23.049Z,27.44
2023-03-07T00:36:55.332Z,28.09
2023-03-07T00:39:26.826Z,29.32
2023-03-07T00:41:58.495Z,28.56
2023-03-07T00:44:31.554Z,29.13
2023-03-07T00:47:02.924Z,28.76
2023-03-07T00:49:34.732Z,28.49
2023-03-07T00:52:06.957Z,28.27
2023-03-07T00:54:38.812Z,28.51
2023-03-07T00:57:10.785Z,28.19
2023-03-07T00:59:42.336Z,28.95
2023-03-07T01:02:13.423Z,27.51
2023-03-07T01:04:44.559Z,28.57
2023-03-07T01:07:15.254Z,27.98
2023-03-07T01:09:48.645Z,27.91
2023-03-07T01:12:20.619Z,28.07
2023-03-07T01:14:54.406Z,28.10
2023-03-07T01:17:25.404Z,28.01
2023-03-07T01:19:56.478Z,28.51
2023-03-07T01:22:27.080Z,28.40
2023-03-07T01:24:58.519Z,27.83
2023-03-07T01:27:29.394Z,28.58
2023-03-07T01:30:00.831Z,27.90
2023-03-07T01:32:33.981Z,28.56
2023-03-07T01:35:05.703Z,27.29
2023-03-07T01:37:37.605Z,27.84
2023-03-07T01:40:11.735Z,27.17
2023-03-07T01:42:43.610Z,27.09
2023-03-07T01:45:15.226Z,28.17
2023-03-07T01:47:49.564Z,27.06
2023-03-07T01:50:21.530Z,27.23
2023-03-07T01:53:04.667Z,28.07
2023-03-07T01:55:37.391Z,27.84
2023-03-07T01:58:17.994Z,28.51
2023-03-07T02:00:49.047Z,28.63
2023-03-07T02:03:24.468Z,28.00
2023-03-07T02:06:05.405Z,28.95
2023-03-07T02:08:37.898Z,28.52
2023-03-07T02:11:09.894Z,28.87
2023-03-07T02:13:41.602Z,28.33
2023-03-07T02:16:12.797Z,29.34
2023-03-07T02:18:47.983Z,27.61
2023-03-07T02:21:49.772Z,27.56
2023-03-07T02:24:43.582Z,28.20
2023-03-07T02:27:15.819Z,27.30
2023-03-07T02:29:47.175Z,27.49
2023-03-07T02:32:18.839Z,28.21
2023-03-07T02:34:49.693Z,27.56
2023-03-07T02:37:31.944Z,27.40
2023-03-07T02:40:08.893Z,28.25
2023-03-07T02:42:42.677Z,28.21
2023-03-07T02:45:19.800Z,28.48
2023-03-07T02:47:51.185Z,28.41
2023-03-07T02:50:22.660Z,28.24
2023-03-07T02:52:56.574Z,27.66
2023-03-07T02:55:28.101Z,27.73
2023-03-07T02:58:03.932Z,27.74
2023-03-07T03:00:34.550Z,28.29
2023-03-07T03:03:06.258Z,28.26
2023-03-07T03:05:37.578Z,27.91
2023-03-07T03:08:08.823Z,27.88
2023-03-07T03:10:40.533Z,27.42
2023-03-07T03:13:12.098Z,28.04
2023-03-07T03:15:45.602Z,28.09
2023-03-07T03:18:17.334Z,28.04
2023-03-07T03:20:48.766Z,27.92
2023-03-07T03:23:19.960Z,27.41
2023-03-07T03:26:02.064Z,27.07
2023-03-07T03:28:36.553Z,27.22
2023-03-07T03:31:16.541Z,26.70
2023-03-07T03:33:48.470Z,27.31
2023-03-07T03:36:20.253Z,26.91
2023-03-07T03:38:54.959Z,26.88
2023-03-07T03:41:27.495Z,26.96
2023-03-07T03:43:59.024Z,26.91
2023-03-07T03:46:32.580Z,27.39
2023-03-07T03:49:05.072Z,26.66
2023-03-07T03:51:37.492Z,26.70
2023-03-07T03:54:08.808Z,26.92
2023-03-07T03:56:40.861Z,26.20
2023-03-07T03:59:12.531Z,26.66
2023-03-07T04:01:44.298Z,26.23
2023-03-07T04:04:15.425Z,26.05
2023-03-07T04:06:46.883Z,26.13
2023-03-07T04:09:21.276Z,26.75
2023-03-07T04:11:53.585Z,26.60
2023-03-07T04:14:25.395Z,25.92
2023-03-07T04:16:57.171Z,26.21
2023-03-07T04:19:29.567Z,26.70
2023-03-07T04:22:01.821Z,26.76
2023-03-07T04:24:32.962Z,26.42
2023-03-07T04:27:04.422Z,25.94
2023-03-07T04:29:35.368Z,25.89
2023-03-07T04:32:20.321Z,25.61
2023-03-07T04:34:52.477Z,25.32
2023-03-07T04:37:23.618Z,25.55
2023-03-07T04:39:54.980Z,25.46
2023-03-07T04:42:26.333Z,25.67
2023-03-07T04:44:57.468Z,25.53
2023-03-07T04:47:29.223Z,25.66
2023-03-07T04:50:00.373Z,25.73
2023-03-07T04:52:33.668Z,25.74
2023-03-07T04:55:05.068Z,25.87
2023-03-07T04:57:36.659Z,25.55
2023-03-07T05:00:10.745Z,25.10
2023-03-07T05:02:43.192Z,25.15
2023-03-07T05:05:15.078Z,24.97
2023-03-07T05:07:47.000Z,25.19
2023-03-07T05:10:18.928Z,25.42
2023-03-07T05:12:50.261Z,24.71
2023-03-07T05:15:20.959Z,24.85
2023-03-07T05:17:52.669Z,24.52
2023-03-07T05:20:25.196Z,24.29
2023-03-07T05:22:56.931Z,24.13
2023-03-07T05:25:28.576Z,23.83
2023-03-07T05:28:02.127Z,23.71
2023-03-07T05:30:33.713Z,23.29
2023-03-07T05:33:05.393Z,23.67
2023-03-07T05:35:36.443Z,23.42
2023-03-07T05:38:07.952Z,23.01
2023-03-07T05:40:40.331Z,22.88
2023-03-07T05:43:13.496Z,22.61
2023-03-07T05:45:45.075Z,22.19
2023-03-07T05:48:16.098Z,22.06
2023-03-07T05:50:47.541Z,21.77
2023-03-07T05:53:20.848Z,21.82
2023-03-07T05:55:52.965Z,21.69
2023-03-07T05:58:24.804Z,21.70
2023-03-07T06:00:56.206Z,21.91
2023-03-07T06:03:27.658Z,21.68
2023-03-07T06:05:59.518Z,21.61
2023-03-07T06:08:31.169Z,21.24
2023-03-07T06:11:02.463Z,21.46
2023-03-07T06:13:33.971Z,21.26
2023-03-07T06:16:05.552Z,21.13
2023-03-07T06:18:39.545Z,21.21
2023-03-07T06:21:11.374Z,20.67
2023-03-07T06:23:47.158Z,20.68
2023-03-07T06:26:23.804Z,20.85
2023-03-07T06:28:58.593Z,20.73
2023-03-07T06:31:33.670Z,20.81
2023-03-07T06:34:06.303Z,20.43
2023-03-07T06:36:37.954Z,20.37
2023-03-07T06:39:09.273Z,20.26
2023-03-07T06:41:41.901Z,20.24
2023-03-07T06:44:13.087Z,19.93
2023-03-07T06:46:44.726Z,19.93
2023-03-07T06:49:18.874Z,19.87
2023-03-07T06:51:52.086Z,19.76
2023-03-07T06:54:23.845Z,19.96
2023-03-07T06:56:56.614Z,19.62
2023-03-07T06:59:28.461Z,19.80
2023-03-07T07:01:59.175Z,19.72
2023-03-07T07:04:31.223Z,19.66
2023-03-07T07:07:02.365Z,19.55
2023-03-07T07:09:33.547Z,19.43
2023-03-07T07:12:06.480Z,19.51
2023-03-07T07:14:38.763Z,19.42
2023-03-07T07:17:13.118Z,19.48
2023-03-07T07:19:44.101Z,19.28
2023-03-07T07:22:19.175Z,19.23
2023-03-07T07:24:53.382Z,19.14
2023-03-07T07:27:24.194Z,19.18
2023-03-07T07:29:56.628Z,19.07
2023-03-07T07:32:27.939Z,19.01
2023-03-07T07:34:59.335Z,19.10
2023-03-07T07:37:40.634Z,19.00
2023-03-07T07:40:12.843Z,18.97
2023-03-07T07:42:44.942Z,18.85
2023-03-07T07:45:40.273Z,18.73
2023-03-07T07:48:14.532Z,18.82
2023-03-07T07:50:46.300Z,18.77
2023-03-07T07:53:19.274Z,18.74
2023-03-07T07:55:51.426Z,18.65
2023-03-07T07:58:22.531Z,18.38
2023-03-07T08:00:54.066Z,18.26
2023-03-07T08:03:25.387Z,18.34
2023-03-07T08:05:56.366Z,18.22
2023-03-07T08:08:28.898Z,18.01
2023-03-07T08:11:00.243Z,18.17
2023-03-07T08:13:31.656Z,18.10
2023-03-07T08:16:02.827Z,18.03
2023-03-07T08:18:33.592Z,17.93
2023-03-07T08:21:05.214Z,17.80
2023-03-07T08:23:37.172Z,17.92
2023-03-07T08:26:11.658Z,17.63
2023-03-07T08:28:43.724Z,17.66
2023-03-07T08:31:14.818Z,17.62
2023-03-07T08:33:46.049Z,17.67
2023-03-07T08:36:17.749Z,17.44
2023-03-07T08:38:56.050Z,17.50
2023-03-07T08:41:27.737Z,17.41
2023-03-07T08:43:59.447Z,17.70
2023-03-07T08:46:30.958Z,17.42
2023-03-07T08:49:02.857Z,17.45
2023-03-07T08:51:33.703Z,17.40
2023-03-07T08:54:05.269Z,17.52
2023-03-07T08:56:36.545Z,17.46
2023-03-07T08:59:07.798Z,17.50
2023-03-07T09:01:41.050Z,17.27
2023-03-07T09:04:12.377Z,17.22
2023-03-07T09:06:43.841Z,17.44
2023-03-07T09:09:15.058Z,17.33
2023-03-07T09:11:46.424Z,17.40
2023-03-07T09:14:24.166Z,17.36
2023-03-07T09:16:55.428Z,17.29
2023-03-07T09:19:28.080Z,17.29
2023-03-07T09:22:00.473Z,17.18
2023-03-07T09:24:32.670Z,17.41
2023-03-07T09:27:04.079Z,17.05
2023-03-07T09:29:35.524Z,16.83
2023-03-07T09:32:07.238Z,16.67
2023-03-07T09:34:38.432Z,16.58
2023-03-07T09:37:09.580Z,16.58
2023-03-07T09:39:41.223Z,16.42
2023-03-07T09:42:20.929Z,16.48
2023-03-07T09:45:30.275Z,16.50
2023-03-07T09:48:31.011Z,16.54
2023-03-07T09:51:29.032Z,16.57
2023-03-07T09:54:21.348Z,16.33
2023-03-07T09:57:00.851Z,16.41
2023-03-07T09:59:53.512Z,16.46
2023-03-07T10:02:57.470Z,16.44
2023-03-07T10:05:51.961Z,16.54
2023-03-07T10:08:30.721Z,16.62
2023-03-07T10:11:07.931Z,16.21
2023-03-07T10:14:03.988Z,16.13
2023-03-07T10:16:52.552Z,16.24
2023-03-07T10:19:43.920Z,16.11
2023-03-07T10:22:28.862Z,15.94
2023-03-07T10:25:02.954Z,16.05
2023-03-07T10:27:34.864Z,16.11
2023-03-07T10:30:19.635Z,16.27
2023-03-07T10:33:01.349Z,16.34
2023-03-07T10:35:46.504Z,16.26
2023-03-07T10:38:34.240Z,16.15
2023-03-07T10:41:13.928Z,16.00
2023-03-07T10:43:46.082Z,15.75
2023-03-07T10:46:25.751Z,15.88
2023-03-07T10:49:10.566Z,16.04
2023-03-07T10:52:03.513Z,15.95
2023-03-07T10:54:39.428Z,15.95
2023-03-07T10:57:14.308Z,15.49
2023-03-07T10:59:49.845Z,15.48
2023-03-07T11:02:46.302Z,15.72
2023-03-07T11:05:34.286Z,15.69
2023-03-07T11:08:43.821Z,15.60
2023-03-07T11:11:29.029Z,15.60
2023-03-07T11:14:18.474Z,15.71
2023-03-07T11:17:00.848Z,15.89
2023-03-07T11:19:44.449Z,15.83
2023-03-07T11:22:28.439Z,15.51
2023-03-07T11:25:06.794Z,15.62
2023-03-07T11:27:48.556Z,15.52
2023-03-07T11:30:39.001Z,15.01
2023-03-07T11:33:15.829Z,15.20
2023-03-07T11:36:14.653Z,15.37
2023-03-07T11:39:05.233Z,15.20
2023-03-07T11:42:05.206Z,15.26
2023-03-07T11:44:55.096Z,15.31
2023-03-07T11:47:51.503Z,15.12
2023-03-07T11:50:32.490Z,15.19
2023-03-07T11:53:03.506Z,15.01
2023-03-07T11:56:26.571Z,15.08
2023-03-07T11:59:20.031Z,15.14
2023-03-07T12:02:03.843Z,15.10
2023-03-07T12:04:43.066Z,15.18
2023-03-07T12:07:32.491Z,14.98
2023-03-07T12:10:09.980Z,14.77
2023-03-07T12:12:55.296Z,14.75
2023-03-07T12:16:04.519Z,14.44
2023-03-07T12:18:58.130Z,14.60
2023-03-07T12:21:50.429Z,14.85
2023-03-07T12:24:27.259Z,14.61
2023-03-07T12:27:35.045Z,14.63
2023-03-07T12:30:22.657Z,14.58
2023-03-07T12:32:54.453Z,14.62
2023-03-07T12:35:45.875Z,14.92
2023-03-07T12:38:33.485Z,14.94
2023-03-07T12:41:35.471Z,14.59
2023-03-07T12:44:12.773Z,14.38
2023-03-07T12:46:50.508Z,14.22
2023-03-07T12:49:47.839Z,14.17
2023-03-07T12:52:42.527Z,14.26
2023-03-07T12:55:20.053Z,14.56
2023-03-07T12:58:11.819Z,14.54
2023-03-07T13:00:48.531Z,14.52
2023-03-07T13:03:44.345Z,14.44
2023-03-07T13:06:21.890Z,14.05
2023-03-07T13:08:59.917Z,13.94
2023-03-07T13:11:35.474Z,13.66
2023-03-07T13:14:07.693Z,13.90
2023-03-07T13:16:41.546Z,14.15
2023-03-07T13:19:37.363Z,14.20
2023-03-07T13:22:18.067Z,14.11
2023-03-07T13:24:50.802Z,14.16
2023-03-07T13:27:33.619Z,14.20
2023-03-07T13:30:10.857Z,14.07
2023-03-07T13:32:53.846Z,14.07
2023-03-07T13:35:31.666Z,13.80
2023-03-07T13:38:07.698Z,13.90
2023-03-07T13:40:41.747Z,13.92
2023-03-07T13:43:22.043Z,13.85
2023-03-07T13:45:55.266Z,13.63
2023-03-07T13:48:32.832Z,13.76
2023-03-07T13:51:10.544Z,13.65
2023-03-07T13:53:47.892Z,13.68
2023-03-07T13:56:19.376Z,13.54
2023-03-07T13:59:12.176Z,13.60
2023-03-07T14:01:47.201Z,13.40
2023-03-07T14:04:40.317Z,13.53
2023-03-07T14:07:33.320Z,13.43
2023-03-07T14:10:32.381Z,13.93
2023-03-07T14:13:41.028Z,13.65
2023-03-07T14:16:33.100Z,13.58
2023-03-07T14:19:17.413Z,13.40
2023-03-07T14:22:20.000Z,13.55
2023-03-07T14:25:10.460Z,13.71
2023-03-07T14:28:22.281Z,13.63
2023-03-07T14:31:01.561Z,13.35
2023-03-07T14:33:33.934Z,13.29
2023-03-07T14:36:17.282Z,13.29
2023-03-07T14:38:49.348Z,13.27
2023-03-07T14:41:30.808Z,13.26
2023-03-07T14:44:19.629Z,13.03
2023-03-07T14:47:14.514Z,13.23
2023-03-07T14:49:59.628Z,13.13
2023-03-07T14:52:32.151Z,13.29
2023-03-07T14:55:05.830Z,13.35
2023-03-07T14:57:42.514Z,13.26
2023-03-07T15:00:27.277Z,13.23
2023-03-07T15:03:09.745Z,13.12
2023-03-07T15:05:53.365Z,13.03
2023-03-07T15:08:31.392Z,13.02
2023-03-07T15:11:08.722Z,13.20
2023-03-07T15:13:59.540Z,13.21
2023-03-07T15:16:36.643Z,13.20
2023-03-07T15:19:48.123Z,13.07
2023-03-07T15:22:25.537Z,13.11
2023-03-07T15:24:57.832Z,12.90
2023-03-07T15:27:33.158Z,12.86
2023-03-07T15:30:26.626Z,12.84
2023-03-07T15:33:07.470Z,12.81
2023-03-07T15:35:39.053Z,12.84
2023-03-07T15:38:18.399Z,12.56
2023-03-07T15:40:49.961Z,12.55
2023-03-07T15:43:24.263Z,12.51
2023-03-07T15:46:15.425Z,12.58
2023-03-07T15:48:56.462Z,12.79
2023-03-07T15:51:29.579Z,12.79
2023-03-07T15:54:12.688Z,12.85
2023-03-07T15:56:43.978Z,12.81
2023-03-07T15:59:42.410Z,12.67
2023-03-07T16:02:47.581Z,12.82
2023-03-07T16:05:24.849Z,12.85
2023-03-07T16:08:04.541Z,12.84
2023-03-07T16:10:35.858Z,12.91
2023-03-07T16:13:07.100Z,12.93
2023-03-07T16:15:38.532Z,12.98
2023-03-07T16:18:10.507Z,13.02
2023-03-07T16:20:41.839Z,12.69
2023-03-07T16:23:15.591Z,12.80
2023-03-07T16:25:47.530Z,12.71
2023-03-07T16:28:18.850Z,12.75
2023-03-07T16:30:50.571Z,12.41
2023-03-07T16:33:21.640Z,12.41
2023-03-07T16:35:52.914Z,12.48
2023-03-07T16:38:24.134Z,12.60
2023-03-07T16:40:55.376Z,12.64
2023-03-07T16:43:36.794Z,12.54
2023-03-07T16:46:13.935Z,12.25
2023-03-07T16:48:46.049Z,12.12
2023-03-07T16:51:19.618Z,12.05
2023-03-07T16:53:51.974Z,11.93
2023-03-07T16:56:31.500Z,11.99
2023-03-07T16:59:03.302Z,12.17
2023-03-07T17:01:34.908Z,12.25
2023-03-07T17:04:06.031Z,12.21
2023-03-07T17:06:39.395Z,12.14
2023-03-07T17:09:15.435Z,11.81
2023-03-07T17:11:51.463Z,11.74
2023-03-07T17:14:22.763Z,11.87
2023-03-07T17:16:54.332Z,12.12
2023-03-07T17:19:30.955Z,12.09
2023-03-07T17:22:04.378Z,12.21
2023-03-07T17:24:35.573Z,12.15
2023-03-07T17:27:06.598Z,11.92
2023-03-07T17:29:45.758Z,11.92
2023-03-07T17:32:17.140Z,11.65
2023-03-07T17:34:48.234Z,11.57
2023-03-07T17:37:19.351Z,11.73
2023-03-07T17:39:50.635Z,11.88
2023-03-07T17:42:22.104Z,11.88
2023-03-07T17:44:53.458Z,11.76
2023-03-07T17:47:24.755Z,11.75
2023-03-07T17:49:55.890Z,11.75
2023-03-07T17:52:27.298Z,11.66
2023-03-07T17:54:58.803Z,11.51
2023-03-07T17:57:30.876Z,11.54
2023-03-07T18:00:02.176Z,11.35
2023-03-07T18:02:46.677Z,11.60
2023-03-07T18:05:17.971Z,11.87
2023-03-07T18:07:50.706Z,11.79
2023-03-07T18:10:22.290Z,11.74
2023-03-07T18:12:57.457Z,11.51
2023-03-07T18:15:29.325Z,11.72
2023-03-07T18:18:00.997Z,11.80
2023-03-07T18:20:33.019Z,11.96
2023-03-07T18:23:04.186Z,12.01
2023-03-07T18:25:35.660Z,11.73
2023-03-07T18:28:06.709Z,11.64
2023-03-07T18:30:38.029Z,11.68
2023-03-07T18:33:09.240Z,11.99
2023-03-07T18:35:40.760Z,12.29
2023-03-07T18:38:12.252Z,12.45
2023-03-07T18:40:43.343Z,12.48
2023-03-07T18:43:15.032Z,12.62
2023-03-07T18:45:48.002Z,12.44
2023-03-07T18:48:19.334Z,12.52
2023-03-07T18:51:07.649Z,12.59
2023-03-07T18:53:39.878Z,12.80
2023-03-07T18:56:13.910Z,12.98
2023-03-07T18:58:45.750Z,13.19
2023-03-07T19:01:26.174Z,13.39
2023-03-07T19:04:00.632Z,13.50
2023-03-07T19:06:46.509Z,13.81
2023-03-07T19:09:19.904Z,14.11
2023-03-07T19:11:51.286Z,14.36
2023-03-07T19:14:22.604Z,14.52
2023-03-07T19:16:53.999Z,14.70
2023-03-07T19:19:25.132Z,14.97
2023-03-07T19:21:56.752Z,15.34
2023-03-07T19:24:28.237Z,15.75
2023-03-07T19:27:00.457Z,15.74
2023-03-07T19:29:33.634Z,15.69
2023-03-07T19:32:04.800Z,16.20
2023-03-07T19:34:36.045Z,16.45
2023-03-07T19:37:07.546Z,16.82
2023-03-07T19:39:39.099Z,16.65
2023-03-07T19:42:10.729Z,17.17
2023-03-07T19:44:42.215Z,17.48
2023-03-07T19:47:12.966Z,17.16
2023-03-07T19:49:44.473Z,16.94
2023-03-07T19:52:16.268Z,17.64
2023-03-07T19:54:48.168Z,17.83
2023-03-07T19:57:18.963Z,17.88
2023-03-07T19:59:57.834Z,17.94
2023-03-07T20:02:30.896Z,18.39
2023-03-07T20:05:02.329Z,18.93
2023-03-07T20:07:32.978Z,18.25
2023-03-07T20:10:04.029Z,18.81
2023-03-07T20:12:35.675Z,18.69
2023-03-07T20:15:07.842Z,18.79
2023-03-07T20:17:39.246Z,19.78
2023-03-07T20:20:11.546Z,19.84
2023-03-07T20:22:43.782Z,19.47
2023-03-07T20:25:16.039Z,19.66
2023-03-07T20:27:47.569Z,20.32
2023-03-07T20:30:21.403Z,20.35
2023-03-07T20:32:53.084Z,21.15
2023-03-07T20:35:25.228Z,20.95
2023-03-07T20:37:56.909Z,21.22
2023-03-07T20:40:28.199Z,21.91
2023-03-07T20:42:58.943Z,21.76
2023-03-07T20:45:30.206Z,20.94
2023-03-07T20:48:01.274Z,22.00
2023-03-07T20:50:32.412Z,21.96
2023-03-07T20:53:03.880Z,21.63
2023-03-07T20:55:35.018Z,21.88
2023-03-07T20:58:06.732Z,22.04
2023-03-07T21:00:38.311Z,21.67
2023-03-07T21:03:11.606Z,22.40
2023-03-07T21:05:43.175Z,22.97
2023-03-07T21:08:14.880Z,22.74
2023-03-07T21:10:46.096Z,22.21
2023-03-07T21:13:17.281Z,22.07
2023-03-07T21:15:55.860Z,22.46
2023-03-07T21:18:27.379Z,22.12
2023-03-07T21:21:03.119Z,22.84
2023-03-07T21:23:34.518Z,23.14
2023-03-07T21:26:14.330Z,23.36
2023-03-07T21:28:46.118Z,23.27
2023-03-07T21:31:24.380Z,24.20
2023-03-07T21:33:58.209Z,23.75
2023-03-07T21:36:30.792Z,24.01
2023-03-07T21:39:03.388Z,23.83
2023-03-07T21:41:34.450Z,23.74
2023-03-07T21:44:06.254Z,24.23
2023-03-07T21:46:37.508Z,23.54
2023-03-07T21:49:09.194Z,24.19
2023-03-07T21:51:39.726Z,23.66
2023-03-07T21:54:10.805Z,23.79
2023-03-07T21:56:42.027Z,24.16
2023-03-07T21:59:14.416Z,23.63
2023-03-07T22:01:45.875Z,24.13
2023-03-07T22:04:17.178Z,23.92
2023-03-07T22:09:19.241Z,24.52
2023-03-07T22:11:49.799Z,23.70
2023-03-07T22:14:21.263Z,23.69
2023-03-07T22:16:52.868Z,24.92
2023-03-07T22:19:23.767Z,25.41
2023-03-07T22:21:54.989Z,24.40
2023-03-07T22:24:26.131Z,24.56
2023-03-07T22:26:57.241Z,23.97
2023-03-07T22:29:28.368Z,25.10
2023-03-07T22:32:00.219Z,24.49
2023-03-07T22:34:31.903Z,24.12
2023-03-07T22:37:02.851Z,23.68
2023-03-07T22:39:34.012Z,24.16
2023-03-07T22:42:05.449Z,23.35
2023-03-07T22:44:36.420Z,24.53
2023-03-07T22:47:07.828Z,25.43
2023-03-07T22:49:38.906Z,25.43
2023-03-07T22:52:09.933Z,26.52
2023-03-07T22:54:42.688Z,26.61
2023-03-07T22:57:14.108Z,25.30
2023-03-07T22:59:44.649Z,25.81
2023-03-07T23:02:16.082Z,25.56
2023-03-07T23:04:47.328Z,25.55
2023-03-07T23:07:18.653Z,25.34
2023-03-07T23:09:49.657Z,24.86
2023-03-07T23:12:20.936Z,24.87
2023-03-07T23:14:52.404Z,24.35
2023-03-07T23:17:24.040Z,25.42
2023-03-07T23:19:55.154Z,26.41
2023-03-07T23:22:27.021Z,25.81
2023-03-07T23:24:58.337Z,25.62
2023-03-07T23:27:29.763Z,25.18
2023-03-07T23:30:01.222Z,25.61
2023-03-07T23:32:33.966Z,25.19
2023-03-07T23:35:05.584Z,24.98
2023-03-07T23:37:36.676Z,24.79
2023-03-07T23:40:08.728Z,25.51
2023-03-07T23:42:40.129Z,25.83
2023-03-07T23:45:12.069Z,26.88
2023-03-07T23:47:43.753Z,25.82
2023-03-07T23:50:14.598Z,25.71
2023-03-07T23:52:46.411Z,26.19
2023-03-07T23:55:17.017Z,25.47
2023-03-07T23:57:50.128Z,25.67
